createdAt,value
2018-05-27T00:01:33.442Z,100354.81
2018-05-27T00:03:59.726Z,100354.45
2018-05-27T00:06:26.026Z,100353.81
2018-05-27T00:08:52.289Z,100352.22
2018-05-27T00:11:18.585Z,100335.14
2018-05-27T00:13:44.837Z,100333.95
2018-05-27T00:16:11.085Z,100338.78
2018-05-27T00:18:37.348Z,100340.40
2018-05-27T00:21:03.676Z,100338.14
2018-05-27T00:23:30.886Z,100339.53
2018-05-27T00:25:57.154Z,100331.91
2018-05-27T00:28:23.426Z,100329.92
2018-05-27T00:30:50.455Z,100330.52
2018-05-27T00:33:17.509Z,100337.69
2018-05-27T00:35:43.771Z,100337.22
2018-05-27T00:38:10.053Z,100334.84
2018-05-27T00:40:36.338Z,100333.73
2018-05-27T00:43:02.588Z,100335.58
2018-05-27T00:45:28.865Z,100334.66
2018-05-27T00:47:55.146Z,100338.00
2018-05-27T00:50:21.369Z,100338.17
2018-05-27T00:52:47.630Z,100333.77
2018-05-27T00:55:13.916Z,100336.50
2018-05-27T00:57:40.245Z,100335.92
2018-05-27T01:00:06.559Z,100335.31
2018-05-27T01:02:33.581Z,100332.02
2018-05-27T01:04:59.846Z,100339.10
2018-05-27T01:07:26.097Z,100342.66
2018-05-27T01:09:52.392Z,100341.34
2018-05-27T01:12:19.408Z,100335.55
2018-05-27T01:14:45.690Z,100324.13
2018-05-27T01:17:11.989Z,100327.72
2018-05-27T01:19:39.021Z,100324.30
2018-05-27T01:22:05.262Z,100333.58
2018-05-27T01:24:31.593Z,100329.46
2018-05-27T01:26:57.871Z,100324.13
2018-05-27T01:29:24.188Z,100323.43
2018-05-27T01:31:50.470Z,100328.17
2018-05-27T01:34:16.783Z,100325.84
2018-05-27T01:36:43.072Z,100323.19
2018-05-27T01:39:09.391Z,100321.23
2018-05-27T01:41:36.407Z,100315.41
2018-05-27T01:44:02.687Z,100314.92
2018-05-27T01:46:28.962Z,100309.55
2018-05-27T01:48:55.244Z,100312.83
2018-05-27T01:51:21.515Z,100309.88
2018-05-27T01:53:47.783Z,100304.01
2018-05-27T01:56:14.801Z,100310.50
2018-05-27T01:58:41.103Z,100310.67
2018-05-27T02:01:07.368Z,100303.98
2018-05-27T02:03:33.661Z,100296.66
2018-05-27T02:05:59.976Z,100296.76
2018-05-27T02:08:26.258Z,100289.41
2018-05-27T02:10:53.193Z,100284.20
2018-05-27T02:13:19.498Z,100278.28
2018-05-27T02:15:45.802Z,100283.39
2018-05-27T02:18:12.837Z,100274.58
2018-05-27T02:20:39.878Z,100268.47
2018-05-27T02:23:06.209Z,100269.59
2018-05-27T02:25:33.223Z,100272.41
2018-05-27T02:27:59.484Z,100270.25
2018-05-27T02:30:25.747Z,100269.59
2018-05-27T02:32:52.018Z,100269.80
2018-05-27T02:35:18.342Z,100268.65
2018-05-27T02:37:44.649Z,100269.59
2018-05-27T02:40:10.923Z,100267.22
2018-05-27T02:42:37.241Z,100259.16
2018-05-27T02:45:03.506Z,100274.91
2018-05-27T02:47:30.519Z,100271.16
2018-05-27T02:49:56.810Z,100278.50
2018-05-27T02:52:23.076Z,100281.48
2018-05-27T02:54:49.379Z,100268.94
2018-05-27T02:57:15.702Z,100269.12
2018-05-27T02:59:41.967Z,100264.61
2018-05-27T03:02:08.211Z,100265.80
2018-05-27T03:04:34.481Z,100262.12
2018-05-27T03:07:01.546Z,100261.23
2018-05-27T03:09:27.804Z,100263.26
2018-05-27T03:11:54.090Z,100270.91
2018-05-27T03:14:20.342Z,100268.93
2018-05-27T03:16:46.599Z,100269.61
2018-05-27T03:19:12.911Z,100273.80
2018-05-27T03:21:40.892Z,100267.36
2018-05-27T03:24:07.154Z,100265.50
2018-05-27T03:26:33.518Z,100269.87
2018-05-27T03:28:59.773Z,100274.53
2018-05-27T03:31:26.032Z,100280.62
2018-05-27T03:33:52.276Z,100272.47
2018-05-27T03:36:18.515Z,100273.89
2018-05-27T03:38:45.576Z,100269.61
2018-05-27T03:41:11.872Z,100269.30
2018-05-27T03:43:38.136Z,100267.63
2018-05-27T03:46:05.146Z,100274.99
2018-05-27T03:48:31.465Z,100282.81
2018-05-27T03:50:57.737Z,100280.16
2018-05-27T03:53:24.751Z,100280.50
2018-05-27T03:55:51.043Z,100276.33
2018-05-27T03:58:17.338Z,100273.90
2018-05-27T04:00:44.423Z,100275.29
2018-05-27T04:03:10.717Z,100278.59
2018-05-27T04:05:55.726Z,100284.61
2018-05-27T04:08:33.206Z,100282.90
2018-05-27T04:10:59.550Z,100279.33
2018-05-27T04:13:25.902Z,100281.43
2018-05-27T04:15:52.177Z,100278.16
2018-05-27T04:18:19.335Z,100277.84
2018-05-27T04:20:46.346Z,100276.95
2018-05-27T04:23:12.603Z,100280.20
2018-05-27T04:25:39.644Z,100274.77
2018-05-27T04:28:06.646Z,100286.30
2018-05-27T04:30:32.880Z,100282.36
2018-05-27T04:32:59.169Z,100282.94
2018-05-27T04:35:25.481Z,100272.38
2018-05-27T04:37:52.524Z,100287.22
2018-05-27T04:40:19.547Z,100286.16
2018-05-27T04:42:45.842Z,100288.91
2018-05-27T04:45:12.107Z,100293.59
2018-05-27T04:47:38.365Z,100289.00
2018-05-27T04:50:05.457Z,100295.67
2018-05-27T04:52:31.751Z,100296.36
2018-05-27T04:54:58.795Z,100293.30
2018-05-27T04:57:25.906Z,100294.80
2018-05-27T04:59:52.198Z,100300.00
2018-05-27T05:02:18.502Z,100304.02
2018-05-27T05:04:45.524Z,100300.54
2018-05-27T05:07:11.849Z,100301.52
2018-05-27T05:09:38.858Z,100301.48
2018-05-27T05:12:05.137Z,100297.52
2018-05-27T05:14:31.417Z,100292.14
2018-05-27T05:16:57.708Z,100290.67
2018-05-27T05:19:23.950Z,100290.98
2018-05-27T05:21:50.962Z,100293.58
2018-05-27T05:24:17.293Z,100293.84
2018-05-27T05:26:43.592Z,100293.45
2018-05-27T05:29:09.886Z,100290.84
2018-05-27T05:31:36.940Z,100295.47
2018-05-27T05:34:03.987Z,100290.73
2018-05-27T05:36:31.017Z,100301.75
2018-05-27T05:38:57.322Z,100294.64
2018-05-27T05:41:23.598Z,100305.23
2018-05-27T05:43:50.610Z,100303.96
2018-05-27T05:46:16.883Z,100306.02
2018-05-27T05:48:43.932Z,100302.61
2018-05-27T05:51:10.258Z,100306.52
2018-05-27T05:53:37.249Z,100307.23
2018-05-27T05:56:03.544Z,100307.16
2018-05-27T05:58:30.527Z,100312.14
2018-05-27T06:00:56.811Z,100308.98
2018-05-27T06:03:23.152Z,100315.45
2018-05-27T06:05:50.160Z,100320.56
2018-05-27T06:08:16.430Z,100326.34
2018-05-27T06:10:43.472Z,100328.73
2018-05-27T06:13:10.520Z,100331.45
2018-05-27T06:15:37.520Z,100327.39
2018-05-27T06:18:03.796Z,100334.87
2018-05-27T06:20:30.815Z,100340.20
2018-05-27T06:22:57.141Z,100344.77
2018-05-27T06:25:24.401Z,100345.97
2018-05-27T06:27:50.720Z,100337.93
2018-05-27T06:30:17.015Z,100344.14
2018-05-27T06:32:43.298Z,100343.90
2018-05-27T06:35:09.576Z,100350.41
2018-05-27T06:37:35.836Z,100356.00
2018-05-27T06:40:02.133Z,100357.66
2018-05-27T06:42:28.497Z,100360.49
2018-05-27T06:44:54.797Z,100357.20
2018-05-27T06:47:21.066Z,100350.47
2018-05-27T06:49:47.344Z,100353.09
2018-05-27T06:52:13.653Z,100355.57
2018-05-27T06:54:40.652Z,100356.78
2018-05-27T06:57:06.963Z,100360.11
2018-05-27T06:59:33.245Z,100365.91
2018-05-27T07:01:59.519Z,100363.53
2018-05-27T07:04:25.882Z,100361.33
2018-05-27T07:06:52.128Z,100358.52
2018-05-27T07:09:18.527Z,100369.05
2018-05-27T07:11:44.821Z,100367.02
2018-05-27T07:14:11.879Z,100361.80
2018-05-27T07:16:38.927Z,100365.47
2018-05-27T07:19:05.183Z,100360.93
2018-05-27T07:21:31.544Z,100368.37
2018-05-27T07:23:57.854Z,100362.80
2018-05-27T07:26:24.136Z,100360.84
2018-05-27T07:28:51.192Z,100361.16
2018-05-27T07:31:17.471Z,100366.56
2018-05-27T07:33:44.522Z,100364.00
2018-05-27T07:36:10.815Z,100370.73
2018-05-27T07:38:37.162Z,100377.58
2018-05-27T07:41:03.482Z,100389.44
2018-05-27T07:43:29.727Z,100398.15
2018-05-27T07:45:56.011Z,100408.04
2018-05-27T07:48:23.058Z,100403.99
2018-05-27T07:50:50.093Z,100408.38
2018-05-27T07:53:16.490Z,100408.19
2018-05-27T07:55:42.776Z,100407.81
2018-05-27T07:58:09.839Z,100413.17
2018-05-27T08:00:36.177Z,100422.77
2018-05-27T08:03:02.537Z,100417.09
2018-05-27T08:05:28.939Z,100412.06
2018-05-27T08:07:55.289Z,100403.77
2018-05-27T08:10:21.615Z,100396.58
2018-05-27T08:12:47.947Z,100393.20
2018-05-27T08:15:14.242Z,100390.20
2018-05-27T08:17:41.299Z,100396.08
2018-05-27T08:20:11.469Z,100392.03
2018-05-27T08:22:39.796Z,100392.64
2018-05-27T08:25:06.887Z,100390.53
2018-05-27T08:27:33.842Z,100393.53
2018-05-27T08:30:00.146Z,100402.64
2018-05-27T08:32:26.419Z,100409.33
2018-05-27T08:34:52.704Z,100402.80
2018-05-27T08:37:19.011Z,100398.84
2018-05-27T08:39:46.107Z,100402.87
2018-05-27T08:42:12.423Z,100408.48
2018-05-27T08:44:38.818Z,100407.73
2018-05-27T08:47:06.193Z,100410.53
2018-05-27T08:49:32.593Z,100408.88
2018-05-27T08:51:59.121Z,100409.14
2018-05-27T08:54:25.412Z,100411.21
2018-05-27T08:56:51.783Z,100409.94
2018-05-27T08:59:18.220Z,100409.87
2018-05-27T09:01:44.513Z,100406.16
2018-05-27T09:04:10.912Z,100410.70
2018-05-27T09:06:37.950Z,100404.75
2018-05-27T09:09:05.010Z,100405.83
2018-05-27T09:11:32.069Z,100405.73
2018-05-27T09:13:58.353Z,100400.17
2018-05-27T09:16:24.623Z,100404.03
2018-05-27T09:18:50.938Z,100399.34
2018-05-27T09:21:17.956Z,100397.58
2018-05-27T09:23:44.298Z,100398.95
2018-05-27T09:26:10.586Z,100401.39
2018-05-27T09:28:36.907Z,100402.16
2018-05-27T09:31:03.219Z,100404.83
2018-05-27T09:33:30.283Z,100406.27
2018-05-27T09:35:57.763Z,100408.30
2018-05-27T09:38:24.078Z,100405.30
2018-05-27T09:40:51.246Z,100405.41
2018-05-27T09:43:18.256Z,100406.44
2018-05-27T09:45:45.295Z,100403.37
2018-05-27T09:48:12.482Z,100396.34
2018-05-27T09:50:38.849Z,100395.52
2018-05-27T09:53:05.916Z,100392.06
2018-05-27T09:55:32.179Z,100399.68
2018-05-27T09:57:58.489Z,100385.68
2018-05-27T10:00:25.514Z,100382.98
2018-05-27T10:02:52.077Z,100381.67
2018-05-27T10:05:19.155Z,100380.53
2018-05-27T10:07:45.432Z,100382.14
2018-05-27T10:10:12.034Z,100379.48
2018-05-27T10:12:38.319Z,100380.59
2018-05-27T10:15:04.685Z,100373.52
2018-05-27T10:17:31.004Z,100373.08
2018-05-27T10:19:57.353Z,100376.27
2018-05-27T10:22:23.673Z,100377.24
2018-05-27T10:24:50.004Z,100368.89
2018-05-27T10:27:16.294Z,100364.34
2018-05-27T10:29:43.311Z,100363.45
2018-05-27T10:32:09.764Z,100365.38
2018-05-27T10:34:36.212Z,100362.04
2018-05-27T10:37:03.264Z,100362.70
2018-05-27T10:39:30.327Z,100358.73
2018-05-27T10:41:57.374Z,100357.38
2018-05-27T10:44:23.857Z,100351.92
2018-05-27T10:46:50.112Z,100359.06
2018-05-27T10:49:16.454Z,100353.98
2018-05-27T10:51:43.474Z,100353.41
2018-05-27T10:54:09.794Z,100354.34
2018-05-27T10:56:36.120Z,100352.06
2018-05-27T10:59:02.571Z,100350.54
2018-05-27T11:01:28.842Z,100344.06
2018-05-27T11:03:55.154Z,100351.70
2018-05-27T11:06:22.195Z,100345.21
2018-05-27T11:08:48.488Z,100345.61
2018-05-27T11:11:14.805Z,100335.87
2018-05-27T11:13:41.101Z,100332.90
2018-05-27T11:16:08.121Z,100332.38
2018-05-27T11:18:35.283Z,100330.56
2018-05-27T11:21:01.593Z,100329.99
2018-05-27T11:23:27.899Z,100326.70
2018-05-27T11:25:54.172Z,100310.19
2018-05-27T11:28:20.429Z,100312.52
2018-05-27T11:30:47.514Z,100308.14
2018-05-27T11:33:13.803Z,100303.69
2018-05-27T11:35:40.828Z,100308.13
2018-05-27T11:38:07.136Z,100298.92
2018-05-27T11:40:33.414Z,100301.81
2018-05-27T11:43:00.452Z,100293.05
2018-05-27T11:45:27.490Z,100287.28
2018-05-27T11:47:53.774Z,100285.53
2018-05-27T11:50:20.042Z,100282.73
2018-05-27T11:52:46.331Z,100281.17
2018-05-27T11:55:12.669Z,100278.02
2018-05-27T11:57:38.945Z,100271.35
2018-05-27T12:00:05.290Z,100272.61
2018-05-27T12:02:32.417Z,100268.87
2018-05-27T12:05:00.230Z,100270.50
2018-05-27T12:07:26.522Z,100263.70
2018-05-27T12:09:53.518Z,100270.17
2018-05-27T12:12:19.810Z,100264.28
2018-05-27T12:14:46.829Z,100260.19
2018-05-27T12:17:13.129Z,100269.48
2018-05-27T12:19:39.890Z,100264.42
2018-05-27T12:22:06.231Z,100259.50
2018-05-27T12:24:32.526Z,100255.72
2018-05-27T12:26:58.831Z,100255.09
2018-05-27T12:29:25.889Z,100251.50
2018-05-27T12:31:52.948Z,100247.12
2018-05-27T12:34:19.231Z,100247.95
2018-05-27T12:36:45.625Z,100234.97
2018-05-27T12:39:11.922Z,100229.70
2018-05-27T12:41:38.250Z,100227.92
2018-05-27T12:44:05.244Z,100243.50
2018-05-27T12:46:31.664Z,100239.22
2018-05-27T12:48:59.003Z,100234.83
2018-05-27T12:51:25.288Z,100231.99
2018-05-27T12:53:53.546Z,100230.60
2018-05-27T12:56:20.873Z,100221.95
2018-05-27T12:58:48.243Z,100214.11
2018-05-27T13:01:14.602Z,100214.44
2018-05-27T13:03:41.983Z,100214.13
2018-05-27T13:06:09.069Z,100204.05
2018-05-27T13:08:35.364Z,100177.83
2018-05-27T13:11:02.495Z,100195.83
2018-05-27T13:13:28.865Z,100196.52
2018-05-27T13:15:55.169Z,100199.03
2018-05-27T13:18:22.215Z,100206.53
2018-05-27T13:20:49.368Z,100200.84
2018-05-27T13:23:16.461Z,100198.70
2018-05-27T13:25:42.734Z,100201.11
2018-05-27T13:28:09.882Z,100195.15
2018-05-27T13:30:36.262Z,100193.42
2018-05-27T13:33:02.632Z,100199.72
2018-05-27T13:35:28.930Z,100196.16
2018-05-27T13:37:55.268Z,100191.89
2018-05-27T13:40:21.535Z,100184.66
2018-05-27T13:42:47.939Z,100178.02
2018-05-27T13:45:14.203Z,100185.06
2018-05-27T13:47:40.590Z,100180.69
2018-05-27T13:50:06.887Z,100178.80
2018-05-27T13:52:33.955Z,100180.08
2018-05-27T13:55:00.246Z,100175.08
2018-05-27T13:57:26.508Z,100173.25
2018-05-27T13:59:52.799Z,100172.72
2018-05-27T14:02:19.155Z,100161.95
2018-05-27T14:04:46.236Z,100164.59
2018-05-27T14:07:12.556Z,100162.38
2018-05-27T14:09:38.904Z,100179.63
2018-05-27T14:12:05.161Z,100159.77
2018-05-27T14:14:31.464Z,100156.41
2018-05-27T14:16:57.734Z,100147.64
2018-05-27T14:19:24.129Z,100152.16
2018-05-27T14:21:50.547Z,100145.34
2018-05-27T14:24:17.959Z,100142.05
2018-05-27T14:26:44.963Z,100140.39
2018-05-27T14:29:11.194Z,100144.95
2018-05-27T14:31:37.466Z,100134.88
2018-05-27T14:34:03.854Z,100135.24
2018-05-27T14:36:30.191Z,100125.13
2018-05-27T14:38:56.542Z,100129.10
2018-05-27T14:41:22.999Z,100129.28
2018-05-27T14:43:49.381Z,100131.91
2018-05-27T14:46:16.751Z,100129.24
2018-05-27T14:48:43.050Z,100128.84
2018-05-27T14:51:09.388Z,100131.98
2018-05-27T14:53:35.714Z,100130.44
2018-05-27T14:56:02.022Z,100131.45
2018-05-27T14:58:29.139Z,100125.36
2018-05-27T15:00:55.518Z,100130.40
2018-05-27T15:03:22.609Z,100128.94
2018-05-27T15:05:48.972Z,100129.70
2018-05-27T15:08:16.288Z,100126.67
2018-05-27T15:10:42.641Z,100128.44
2018-05-27T15:13:08.941Z,100119.11
2018-05-27T15:15:35.294Z,100120.75
2018-05-27T15:18:01.605Z,100118.02
2018-05-27T15:20:27.993Z,100119.25
2018-05-27T15:22:55.046Z,100121.23
2018-05-27T15:25:22.090Z,100117.49
2018-05-27T15:27:48.492Z,100112.72
2018-05-27T15:30:14.842Z,100108.89
2018-05-27T15:32:41.268Z,100109.14
2018-05-27T15:35:07.872Z,100111.89
2018-05-27T15:37:34.247Z,100110.11
2018-05-27T15:40:00.647Z,100104.03
2018-05-27T15:42:26.996Z,100103.91
2018-05-27T15:44:53.314Z,100100.48
2018-05-27T15:47:19.630Z,100099.63
2018-05-27T15:49:46.017Z,100096.64
2018-05-27T15:52:13.200Z,100091.48
2018-05-27T15:54:39.593Z,100101.96
2018-05-27T15:57:06.017Z,100101.42
2018-05-27T15:59:32.342Z,100102.51
2018-05-27T16:01:58.753Z,100096.34
2018-05-27T16:04:25.041Z,100092.94
2018-05-27T16:06:52.131Z,100088.47
2018-05-27T16:09:18.458Z,100096.39
2018-05-27T16:11:44.829Z,100093.75
2018-05-27T16:14:11.213Z,100093.03
2018-05-27T16:16:37.615Z,100090.45
2018-05-27T16:19:05.719Z,100100.83
2018-05-27T16:21:32.176Z,100101.55
2018-05-27T16:23:58.496Z,100105.91
2018-05-27T16:26:24.864Z,100108.91
2018-05-27T16:28:51.274Z,100106.55
2018-05-27T16:31:17.609Z,100104.24
2018-05-27T16:33:43.914Z,100102.73
2018-05-27T16:36:10.279Z,100103.78
2018-05-27T16:38:36.582Z,100105.49
2018-05-27T16:41:03.128Z,100108.02
2018-05-27T16:43:30.682Z,100114.84
2018-05-27T16:45:57.000Z,100115.19
2018-05-27T16:48:23.337Z,100120.00
2018-05-27T16:50:49.771Z,100115.97
2018-05-27T16:53:16.147Z,100122.80
2018-05-27T16:55:43.947Z,100120.11
2018-05-27T16:58:11.124Z,100110.86
2018-05-27T17:00:37.508Z,100113.09
2018-05-27T17:03:03.840Z,100109.14
2018-05-27T17:05:30.196Z,100108.49
2018-05-27T17:07:56.535Z,100104.20
2018-05-27T17:10:22.883Z,100102.02
2018-05-27T17:12:49.285Z,100099.64
2018-05-27T17:15:16.553Z,100108.55
2018-05-27T17:17:42.913Z,100101.53
2018-05-27T17:20:09.269Z,100108.73
2018-05-27T17:22:35.684Z,100118.59
2018-05-27T17:25:02.053Z,100119.38
2018-05-27T17:27:29.095Z,100136.82
2018-05-27T17:29:55.402Z,100133.84
2018-05-27T17:32:21.755Z,100129.34
2018-05-27T17:34:48.159Z,100134.82
2018-05-27T17:37:14.552Z,100113.21
2018-05-27T17:39:41.640Z,100135.40
2018-05-27T17:42:07.992Z,100130.89
2018-05-27T17:44:35.178Z,100123.55
2018-05-27T17:47:02.305Z,100129.54
2018-05-27T17:49:28.600Z,100126.53
2018-05-27T17:51:54.965Z,100124.68
2018-05-27T17:54:22.041Z,100127.57
2018-05-27T17:56:48.433Z,100128.76
2018-05-27T17:59:14.780Z,100131.98
2018-05-27T18:01:41.366Z,100134.49
2018-05-27T18:04:07.723Z,100135.92
2018-05-27T18:06:34.069Z,100140.33
2018-05-27T18:09:00.405Z,100136.97
2018-05-27T18:11:26.758Z,100144.18
2018-05-27T18:13:53.882Z,100140.55
2018-05-27T18:16:21.689Z,100135.74
2018-05-27T18:18:49.004Z,100129.23
2018-05-27T18:21:15.378Z,100128.87
2018-05-27T18:23:41.722Z,100134.45
2018-05-27T18:26:08.293Z,100132.55
2018-05-27T18:28:34.711Z,100127.05
2018-05-27T18:31:01.069Z,100124.78
2018-05-27T18:33:27.369Z,100121.73
2018-05-27T18:35:53.712Z,100124.05
2018-05-27T18:38:20.061Z,100116.28
2018-05-27T18:40:46.557Z,100111.45
2018-05-27T18:43:13.993Z,100123.73
2018-05-27T18:45:40.988Z,100132.30
2018-05-27T18:48:07.634Z,100133.56
2018-05-27T18:50:34.051Z,100136.39
2018-05-27T18:53:00.641Z,100140.05
2018-05-27T18:55:27.766Z,100148.96
2018-05-27T18:57:54.292Z,100150.58
2018-05-27T19:00:20.750Z,100148.89
2018-05-27T19:02:47.189Z,100157.55
2018-05-27T19:05:14.359Z,100156.93
2018-05-27T19:07:40.749Z,100159.85
2018-05-27T19:10:07.120Z,100159.55
2018-05-27T19:12:35.193Z,100160.48
2018-05-27T19:15:01.664Z,100156.69
2018-05-27T19:17:28.062Z,100163.92
2018-05-27T19:19:54.453Z,100171.77
2018-05-27T19:22:20.805Z,100170.31
2018-05-27T19:24:47.150Z,100170.50
2018-05-27T19:27:15.348Z,100174.41
2018-05-27T19:29:41.724Z,100173.87
2018-05-27T19:32:08.126Z,100180.77
2018-05-27T19:34:35.195Z,100184.36
2018-05-27T19:37:01.505Z,100188.02
2018-05-27T19:39:27.854Z,100185.50
2018-05-27T19:41:54.173Z,100187.02
2018-05-27T19:44:20.497Z,100179.96
2018-05-27T19:46:46.826Z,100180.63
2018-05-27T19:49:13.168Z,100176.77
2018-05-27T19:51:39.596Z,100163.64
2018-05-27T19:54:05.885Z,100165.16
2018-05-27T19:56:33.405Z,100159.67
2018-05-27T19:58:59.772Z,100153.81
2018-05-27T20:01:26.853Z,100154.18
2018-05-27T20:03:53.217Z,100155.70
2018-05-27T20:06:19.589Z,100150.30
2018-05-27T20:08:46.654Z,100146.55
2018-05-27T20:11:13.038Z,100146.81
2018-05-27T20:13:39.342Z,100143.09
2018-05-27T20:16:05.702Z,100149.45
2018-05-27T20:18:32.050Z,100146.06
2018-05-27T20:20:58.440Z,100154.62
2018-05-27T20:23:24.838Z,100154.44
2018-05-27T20:25:52.121Z,100149.90
2018-05-27T20:28:18.531Z,100158.04
2018-05-27T20:30:45.939Z,100156.79
2018-05-27T20:33:13.376Z,100165.52
2018-05-27T20:35:39.969Z,100164.45
2018-05-27T20:38:07.198Z,100166.17
2018-05-27T20:40:33.503Z,100166.66
2018-05-27T20:42:59.857Z,100172.03
2018-05-27T20:45:26.200Z,100167.75
2018-05-27T20:47:53.295Z,100178.02
2018-05-27T20:50:19.738Z,100174.00
2018-05-27T20:52:46.135Z,100177.15
2018-05-27T20:55:13.271Z,100182.16
2018-05-27T20:57:39.620Z,100177.41
2018-05-27T21:00:06.707Z,100187.59
2018-05-27T21:02:33.061Z,100188.14
2018-05-27T21:04:59.399Z,100187.09
2018-05-27T21:07:25.793Z,100169.84
2018-05-27T21:09:52.161Z,100192.71
2018-05-27T21:12:18.489Z,100193.44
2018-05-27T21:14:44.824Z,100199.56
2018-05-27T21:17:11.105Z,100199.91
2018-05-27T21:19:37.471Z,100201.05
2018-05-27T21:22:03.829Z,100204.69
2018-05-27T21:24:30.147Z,100202.60
2018-05-27T21:26:56.512Z,100195.30
2018-05-27T21:29:23.575Z,100199.39
2018-05-27T21:31:50.639Z,100202.32
2018-05-27T21:34:16.966Z,100197.36
2018-05-27T21:36:43.338Z,100188.69
2018-05-27T21:39:09.670Z,100187.11
2018-05-27T21:41:36.062Z,100192.58
2018-05-27T21:44:02.439Z,100198.81
2018-05-27T21:46:28.797Z,100196.19
2018-05-27T21:48:55.876Z,100195.69
2018-05-27T21:51:22.270Z,100198.65
2018-05-27T21:53:48.626Z,100195.60
2018-05-27T21:56:14.980Z,100195.28
2018-05-27T21:58:41.358Z,100195.63
2018-05-27T22:01:07.728Z,100191.17
2018-05-27T22:03:34.079Z,100201.75
2018-05-27T22:06:00.462Z,100195.88
2018-05-27T22:08:26.781Z,100192.50
2018-05-27T22:10:53.154Z,100195.21
2018-05-27T22:13:19.442Z,100197.32
2018-05-27T22:15:45.775Z,100197.44
2018-05-27T22:18:12.109Z,100198.97
2018-05-27T22:20:38.413Z,100201.67
2018-05-27T22:23:04.805Z,100204.53
2018-05-27T22:25:31.157Z,100199.34
2018-05-27T22:27:57.528Z,100204.02
2018-05-27T22:30:23.828Z,100205.44
2018-05-27T22:32:50.132Z,100198.62
2018-05-27T22:35:17.159Z,100205.73
2018-05-27T22:37:44.229Z,100207.70
2018-05-27T22:40:10.517Z,100202.79
2018-05-27T22:42:36.861Z,100203.89
2018-05-27T22:45:03.213Z,100200.32
2018-05-27T22:47:30.324Z,100206.47
2018-05-27T22:49:56.627Z,100201.09
2018-05-27T22:52:22.909Z,100201.35
2018-05-27T22:54:49.934Z,100192.78
2018-05-27T22:57:16.239Z,100199.02
2018-05-27T22:59:42.499Z,100196.70
2018-05-27T23:02:08.815Z,100192.47
2018-05-27T23:04:35.195Z,100192.91
2018-05-27T23:07:02.223Z,100190.51
2018-05-27T23:09:28.516Z,100193.83
2018-05-27T23:11:54.814Z,100189.77
2018-05-27T23:14:21.073Z,100191.86
2018-05-27T23:16:47.464Z,100185.80
2018-05-27T23:19:14.491Z,100186.63
2018-05-27T23:21:40.984Z,100185.56
2018-05-27T23:24:07.356Z,100186.88
2018-05-27T23:26:33.706Z,100184.72
2018-05-27T23:29:00.756Z,100183.03
2018-05-27T23:31:27.813Z,100184.43
2018-05-27T23:33:54.071Z,100182.22
2018-05-27T23:36:20.348Z,100177.05
2018-05-27T23:38:48.125Z,100173.56
2018-05-27T23:41:15.176Z,100174.72
2018-05-27T23:43:42.219Z,100170.16
2018-05-27T23:46:09.264Z,100182.69
2018-05-27T23:48:35.579Z,100177.62
2018-05-27T23:51:01.930Z,100179.03
2018-05-27T23:53:28.960Z,100177.19
2018-05-27T23:55:55.241Z,100181.76
2018-05-27T23:58:21.541Z,100185.41
